Moro, Oregon
Current Conditions -  °F | °C
As of 12:53 PM on Tuesday 25 Nov 2014 (Local Time) from KDLS Reporting Station
Overcast Overcast  
Wind Chill: 61°   Ceiling: 4400
Heat Index: 61°   Visibility: 10mi
Dew Point: 52°   Wind: 15mph
Humidity: 72%   Direction: 320°NW
Pressure: 30.2"   Gusts: NA
Location:  45.48°N, 120.73°W
Report Text: KDLS 252053Z AUTO 32013KT 10SM OVC044 16/11 A3020 RMK AO2 SLP227 T01610111 50008
Loading
Personal Weather Stations






























Interactive Weather Map New forecast layout! Learn more

10-Day Weather Forecast

Advertisements
Track Severe Weather on mobile